createdAt,value
2023-05-13T00:01:51.778Z,3.83
2023-05-13T00:04:19.441Z,5.50
2023-05-13T00:06:47.197Z,3.90
2023-05-13T00:09:14.892Z,3.93
2023-05-13T00:11:42.617Z,4.50
2023-05-13T00:14:10.927Z,4.33
2023-05-13T00:16:38.702Z,3.53
2023-05-13T00:19:06.657Z,5.63
2023-05-13T00:21:34.798Z,5.93
2023-05-13T00:24:02.479Z,6.77
2023-05-13T00:26:30.302Z,3.73
2023-05-13T00:28:58.055Z,3.57
2023-05-13T00:31:25.864Z,3.33
2023-05-13T00:33:53.631Z,5.03
2023-05-13T00:36:21.557Z,3.53
2023-05-13T00:38:49.269Z,4.93
2023-05-13T00:41:17.115Z,4.47
2023-05-13T00:43:44.826Z,6.87
2023-05-13T00:46:12.643Z,4.27
2023-05-13T00:48:40.283Z,4.57
2023-05-13T00:51:08.049Z,3.87
2023-05-13T00:53:36.114Z,4.80
2023-05-13T00:56:04.027Z,3.77
2023-05-13T00:58:31.719Z,3.57
2023-05-13T01:01:21.525Z,4.53
2023-05-13T01:04:11.412Z,4.47
2023-05-13T01:06:48.854Z,3.40
2023-05-13T01:09:25.662Z,5.67
2023-05-13T01:11:53.703Z,3.63
2023-05-13T01:14:26.412Z,3.87
2023-05-13T01:17:09.738Z,3.73
2023-05-13T01:19:52.549Z,6.63
2023-05-13T01:22:20.372Z,3.47
2023-05-13T01:24:48.113Z,3.40
2023-05-13T01:27:16.057Z,3.10
2023-05-13T01:29:44.097Z,4.33
2023-05-13T01:32:13.005Z,3.40
2023-05-13T01:34:41.001Z,2.93
2023-05-13T01:37:08.746Z,2.33
2023-05-13T01:39:37.644Z,3.87
2023-05-13T01:42:09.422Z,3.53
2023-05-13T01:44:37.361Z,11.60
2023-05-13T01:47:05.960Z,8.40
2023-05-13T01:49:33.667Z,9.63
2023-05-13T01:52:01.427Z,12.07
2023-05-13T01:54:30.103Z,7.10
2023-05-13T01:57:04.432Z,5.67
2023-05-13T01:59:32.294Z,3.63
2023-05-13T02:02:00.742Z,3.20
2023-05-13T02:04:28.499Z,3.80
2023-05-13T02:06:56.702Z,4.37
2023-05-13T02:09:25.178Z,3.20
2023-05-13T02:11:52.990Z,3.07
2023-05-13T02:14:22.190Z,3.57
2023-05-13T02:16:50.277Z,2.70
2023-05-13T02:19:18.161Z,5.13
2023-05-13T02:21:46.224Z,2.70
2023-05-13T02:24:14.323Z,3.60
2023-05-13T02:26:42.080Z,3.40
2023-05-13T02:29:09.965Z,4.27
2023-05-13T02:31:37.762Z,3.40
2023-05-13T02:34:05.477Z,3.67
2023-05-13T02:36:33.283Z,4.17
2023-05-13T02:39:01.604Z,3.30
2023-05-13T02:41:29.934Z,3.93
2023-05-13T02:43:57.764Z,3.10
2023-05-13T02:46:25.863Z,5.30
2023-05-13T02:48:55.755Z,3.57
2023-05-13T02:51:23.515Z,3.53
2023-05-13T02:53:51.976Z,2.87
2023-05-13T02:56:20.002Z,7.50
2023-05-13T02:58:47.668Z,6.33
2023-05-13T03:01:15.529Z,3.67
2023-05-13T03:03:43.294Z,3.00
2023-05-13T03:06:11.651Z,4.87
2023-05-13T03:08:39.401Z,8.80
2023-05-13T03:11:07.144Z,4.07
2023-05-13T03:13:34.801Z,7.17
2023-05-13T03:16:02.553Z,6.27
2023-05-13T03:18:32.631Z,5.53
2023-05-13T03:21:01.217Z,6.97
2023-05-13T03:23:29.162Z,6.27
2023-05-13T03:25:58.603Z,5.27
2023-05-13T03:28:26.509Z,14.40
2023-05-13T03:30:54.359Z,3.33
2023-05-13T03:33:22.692Z,4.57
2023-05-13T03:35:50.540Z,3.40
2023-05-13T03:38:24.184Z,2.77
2023-05-13T03:40:53.108Z,2.57
2023-05-13T03:43:20.992Z,2.20
2023-05-13T03:45:54.872Z,2.43
2023-05-13T03:48:24.129Z,3.07
2023-05-13T03:50:53.115Z,4.70
2023-05-13T03:53:21.614Z,3.23
2023-05-13T03:55:49.990Z,12.07
2023-05-13T03:58:18.524Z,23.63
2023-05-13T04:00:47.221Z,33.93
2023-05-13T04:03:16.390Z,14.27
2023-05-13T04:05:46.195Z,22.23
2023-05-13T04:08:14.026Z,35.27
2023-05-13T04:10:41.696Z,31.40
2023-05-13T04:13:09.442Z,19.60
2023-05-13T04:15:37.245Z,20.57
2023-05-13T04:18:06.662Z,25.63
2023-05-13T04:20:37.960Z,38.60
2023-05-13T04:23:05.947Z,65.50
2023-05-13T04:25:35.028Z,47.00
2023-05-13T04:28:02.876Z,27.43
2023-05-13T04:30:36.130Z,23.43
2023-05-13T04:33:04.652Z,12.10
2023-05-13T04:35:33.445Z,4.83
2023-05-13T04:38:04.757Z,4.67
2023-05-13T04:40:32.569Z,12.03
2023-05-13T04:43:05.958Z,2.87
2023-05-13T04:45:39.929Z,3.53
2023-05-13T04:48:10.376Z,3.97
2023-05-13T04:50:38.438Z,4.10
2023-05-13T04:53:06.824Z,5.83
2023-05-13T04:55:35.064Z,8.20
2023-05-13T04:58:02.948Z,9.03
2023-05-13T05:00:30.802Z,13.27
2023-05-13T05:02:58.793Z,8.47
2023-05-13T05:05:27.438Z,6.33
2023-05-13T05:07:56.052Z,4.10
2023-05-13T05:10:23.905Z,4.47
2023-05-13T05:12:55.611Z,5.53
2023-05-13T05:15:23.947Z,4.63
2023-05-13T05:17:55.780Z,5.83
2023-05-13T05:20:24.472Z,6.50
2023-05-13T05:22:55.209Z,6.07
2023-05-13T05:25:26.380Z,5.30
2023-05-13T05:27:54.403Z,8.63
2023-05-13T05:30:23.862Z,4.50
2023-05-13T05:33:03.837Z,5.17
2023-05-13T05:35:31.770Z,6.80
2023-05-13T05:37:59.802Z,5.30
2023-05-13T05:40:27.638Z,8.03
2023-05-13T05:42:55.523Z,3.20
2023-05-13T05:45:23.254Z,4.30
2023-05-13T05:47:51.391Z,4.00
2023-05-13T05:50:19.411Z,11.47
2023-05-13T05:52:47.331Z,12.30
2023-05-13T05:55:16.403Z,9.57
2023-05-13T05:57:44.162Z,4.83
2023-05-13T06:00:12.515Z,4.67
2023-05-13T06:02:43.182Z,3.23
2023-05-13T06:05:12.950Z,2.53
2023-05-13T06:07:41.957Z,3.40
2023-05-13T06:10:10.134Z,3.07
2023-05-13T06:12:38.124Z,2.53
2023-05-13T06:15:10.582Z,5.70
2023-05-13T06:17:38.497Z,2.00
2023-05-13T06:20:07.853Z,2.70
2023-05-13T06:22:36.651Z,2.03
2023-05-13T06:25:04.793Z,2.27
2023-05-13T06:27:34.022Z,1.77
2023-05-13T06:30:01.720Z,2.80
2023-05-13T06:32:29.541Z,3.63
2023-05-13T06:34:57.200Z,2.67
2023-05-13T06:37:25.653Z,4.13
2023-05-13T06:39:53.588Z,3.40
2023-05-13T06:42:21.447Z,3.10
2023-05-13T06:44:57.149Z,2.70
2023-05-13T06:47:28.838Z,2.63
2023-05-13T06:49:56.613Z,1.90
2023-05-13T06:52:24.358Z,2.23
2023-05-13T06:54:52.062Z,2.23
2023-05-13T06:57:20.738Z,3.20
2023-05-13T06:59:49.591Z,2.30
2023-05-13T07:02:17.350Z,3.03
2023-05-13T07:04:45.018Z,2.47
2023-05-13T07:07:12.784Z,3.67
2023-05-13T07:09:40.541Z,2.10
2023-05-13T07:12:10.228Z,1.87
2023-05-13T07:14:38.032Z,2.07
2023-05-13T07:17:05.860Z,1.90
2023-05-13T07:19:33.693Z,4.77
2023-05-13T07:22:01.458Z,1.90
2023-05-13T07:24:29.225Z,2.27
2023-05-13T07:26:56.903Z,1.87
2023-05-13T07:29:25.966Z,1.90
2023-05-13T07:31:55.599Z,1.60
2023-05-13T07:34:23.315Z,3.17
2023-05-13T07:36:50.981Z,1.77
2023-05-13T07:39:18.835Z,2.03
2023-05-13T07:41:46.524Z,2.00
2023-05-13T07:44:15.323Z,2.20
2023-05-13T07:46:43.060Z,2.40
2023-05-13T07:49:10.843Z,2.13
2023-05-13T07:51:38.558Z,3.07
2023-05-13T07:54:06.311Z,1.90
2023-05-13T07:56:34.172Z,2.00
2023-05-13T07:59:02.058Z,1.53
2023-05-13T08:01:30.039Z,1.90
2023-05-13T08:03:57.960Z,2.15
2023-05-13T08:06:26.055Z,1.47
2023-05-13T08:08:53.818Z,6.20
2023-05-13T08:11:21.837Z,1.75
2023-05-13T08:13:49.643Z,2.25
2023-05-13T08:16:17.431Z,1.73
2023-05-13T08:18:45.402Z,1.65
2023-05-13T08:21:13.168Z,1.50
2023-05-13T08:23:45.708Z,1.40
2023-05-13T08:26:13.976Z,1.00
2023-05-13T08:28:42.708Z,1.80
2023-05-13T08:31:13.761Z,2.00
2023-05-13T08:33:47.474Z,1.45
2023-05-13T08:36:15.752Z,1.50
2023-05-13T08:38:43.681Z,1.67
2023-05-13T08:41:14.419Z,4.80
2023-05-13T08:43:45.059Z,2.47
2023-05-13T08:46:12.883Z,1.88
2023-05-13T08:48:41.394Z,1.02
2023-05-13T08:51:09.562Z,1.80
2023-05-13T08:53:38.687Z,2.08
2023-05-13T08:56:08.046Z,1.80
2023-05-13T08:58:35.816Z,6.28
2023-05-13T09:01:04.496Z,1.40
2023-05-13T09:03:32.190Z,1.85
2023-05-13T09:06:03.070Z,3.55
2023-05-13T09:08:32.624Z,2.90
2023-05-13T09:11:00.966Z,1.63
2023-05-13T09:13:28.681Z,1.50
2023-05-13T09:15:56.474Z,4.57
2023-05-13T09:18:34.767Z,1.00
2023-05-13T09:21:21.840Z,6.97
2023-05-13T09:23:49.639Z,2.72
2023-05-13T09:26:35.577Z,1.85
2023-05-13T09:29:22.926Z,3.85
2023-05-13T09:31:54.778Z,10.98
2023-05-13T09:34:29.405Z,5.53
2023-05-13T09:36:57.803Z,2.70
2023-05-13T09:39:25.609Z,1.70
2023-05-13T09:41:53.420Z,2.53
2023-05-13T09:44:21.764Z,3.50
2023-05-13T09:46:51.443Z,3.35
2023-05-13T09:49:21.900Z,2.03
2023-05-13T09:51:49.846Z,1.80
2023-05-13T09:54:17.600Z,3.42
2023-05-13T09:56:45.296Z,1.63
2023-05-13T09:59:13.089Z,5.03
2023-05-13T10:01:40.983Z,4.07
2023-05-13T10:04:08.959Z,9.05
2023-05-13T10:06:36.803Z,22.75
2023-05-13T10:09:04.579Z,19.98
2023-05-13T10:11:33.532Z,22.35
2023-05-13T10:14:03.026Z,14.10
2023-05-13T10:16:31.840Z,6.07
2023-05-13T10:18:59.773Z,3.00
2023-05-13T10:21:27.589Z,1.42
2023-05-13T10:23:56.355Z,7.90
2023-05-13T10:26:24.270Z,2.38
2023-05-13T10:28:55.455Z,1.70
2023-05-13T10:31:23.192Z,12.95
2023-05-13T10:33:51.961Z,5.30
2023-05-13T10:36:31.827Z,5.15
2023-05-13T10:39:08.572Z,8.15
2023-05-13T10:42:07.821Z,6.78
2023-05-13T10:44:35.738Z,16.85
2023-05-13T10:47:03.475Z,3.15
2023-05-13T10:49:35.002Z,8.05
2023-05-13T10:52:06.913Z,7.03
2023-05-13T10:54:38.913Z,14.82
2023-05-13T10:57:06.921Z,5.22
2023-05-13T10:59:36.232Z,29.33
2023-05-13T11:02:23.370Z,11.50
2023-05-13T11:04:58.629Z,16.55
2023-05-13T11:07:28.818Z,11.55
2023-05-13T11:09:56.525Z,14.95
2023-05-13T11:12:24.212Z,18.23
2023-05-13T11:14:55.892Z,12.13
2023-05-13T11:17:23.650Z,4.22
2023-05-13T11:19:51.850Z,6.05
2023-05-13T11:22:23.992Z,6.53
2023-05-13T11:25:09.098Z,2.72
2023-05-13T11:27:40.635Z,3.95
2023-05-13T11:30:28.045Z,1.40
2023-05-13T11:32:56.868Z,2.13
2023-05-13T11:35:31.891Z,1.50
2023-05-13T11:38:01.253Z,1.83
2023-05-13T11:40:33.204Z,2.97
2023-05-13T11:43:01.397Z,1.83
2023-05-13T11:45:29.935Z,5.60
2023-05-13T11:47:58.089Z,4.57
2023-05-13T11:50:32.989Z,2.38
2023-05-13T11:53:01.300Z,6.22
2023-05-13T11:55:34.501Z,14.63
2023-05-13T11:58:02.471Z,2.08
2023-05-13T12:00:31.354Z,10.50
2023-05-13T12:02:59.628Z,6.00
2023-05-13T12:05:27.720Z,7.43
2023-05-13T12:07:58.720Z,2.20
2023-05-13T12:10:26.893Z,5.75
2023-05-13T12:12:54.592Z,11.93
2023-05-13T12:15:23.060Z,3.00
2023-05-13T12:17:51.188Z,6.88
2023-05-13T12:20:23.267Z,2.03
2023-05-13T12:22:52.678Z,1.95
2023-05-13T12:25:33.043Z,3.90
2023-05-13T12:28:22.023Z,2.85
2023-05-13T12:30:59.516Z,3.53
2023-05-13T12:33:34.648Z,1.90
2023-05-13T12:36:15.263Z,2.20
2023-05-13T12:39:00.425Z,2.53
2023-05-13T12:41:36.279Z,5.40
2023-05-13T12:44:04.780Z,2.35
2023-05-13T12:46:32.714Z,2.65
2023-05-13T12:49:01.575Z,2.13
2023-05-13T12:51:33.781Z,2.20
2023-05-13T12:54:01.775Z,2.38
2023-05-13T12:56:29.507Z,2.30
2023-05-13T12:58:57.758Z,1.65
2023-05-13T13:01:25.570Z,2.60
2023-05-13T13:03:53.615Z,4.53
2023-05-13T13:06:21.593Z,3.85
2023-05-13T13:08:49.516Z,2.08
2023-05-13T13:11:21.673Z,2.17
2023-05-13T13:13:49.774Z,2.20
2023-05-13T13:16:17.575Z,4.80
2023-05-13T13:18:45.482Z,2.33
2023-05-13T13:21:13.200Z,2.03
2023-05-13T13:23:40.993Z,2.13
2023-05-13T13:26:08.741Z,2.50
2023-05-13T13:28:36.484Z,4.63
2023-05-13T13:31:04.234Z,4.35
2023-05-13T13:33:32.023Z,2.58
2023-05-13T13:35:59.747Z,2.50
2023-05-13T13:38:27.543Z,2.25
2023-05-13T13:40:55.256Z,2.42
2023-05-13T13:43:23.461Z,3.13
2023-05-13T13:45:51.172Z,4.05
2023-05-13T13:48:18.978Z,3.72
2023-05-13T13:50:48.111Z,2.03
2023-05-13T13:53:16.617Z,3.10
2023-05-13T13:55:44.325Z,3.35
2023-05-13T13:58:14.422Z,5.95
2023-05-13T14:00:42.137Z,4.50
2023-05-13T14:03:10.016Z,2.85
2023-05-13T14:05:37.785Z,4.00
2023-05-13T14:08:05.731Z,3.03
2023-05-13T14:10:33.472Z,1.83
2023-05-13T14:13:01.293Z,2.15
2023-05-13T14:15:30.681Z,3.08
2023-05-13T14:17:58.625Z,2.47
2023-05-13T14:20:28.824Z,2.65
2023-05-13T14:22:56.685Z,4.78
2023-05-13T14:25:24.404Z,3.13
2023-05-13T14:27:52.176Z,2.25
2023-05-13T14:30:20.168Z,3.17
2023-05-13T14:32:48.174Z,2.53
2023-05-13T14:35:17.060Z,2.95
2023-05-13T14:37:44.784Z,2.45
2023-05-13T14:40:12.679Z,3.45
2023-05-13T14:42:40.648Z,3.75
2023-05-13T14:45:10.161Z,6.55
2023-05-13T14:47:39.474Z,3.38
2023-05-13T14:50:07.866Z,6.57
2023-05-13T14:52:35.614Z,2.53
2023-05-13T14:55:03.400Z,8.40
2023-05-13T14:57:31.339Z,4.05
2023-05-13T15:00:00.124Z,3.15
2023-05-13T15:02:28.116Z,3.00
2023-05-13T15:04:55.899Z,2.67
2023-05-13T15:07:23.693Z,3.58
2023-05-13T15:09:51.484Z,9.52
2023-05-13T15:12:20.548Z,9.93
2023-05-13T15:14:53.299Z,19.63
2023-05-13T15:17:21.234Z,17.65
2023-05-13T15:19:49.004Z,30.50
2023-05-13T15:22:18.067Z,88.35
2023-05-13T15:24:45.862Z,77.15
2023-05-13T15:27:14.315Z,25.67
2023-05-13T15:29:42.109Z,25.02
2023-05-13T15:32:10.032Z,14.18
2023-05-13T15:34:37.822Z,23.48
2023-05-13T15:37:05.669Z,12.52
2023-05-13T15:39:33.570Z,9.18
2023-05-13T15:42:01.628Z,13.82
2023-05-13T15:44:29.468Z,11.88
2023-05-13T15:46:57.303Z,10.65
2023-05-13T15:49:25.188Z,5.47
2023-05-13T15:51:54.475Z,4.00
2023-05-13T15:54:22.298Z,5.88
2023-05-13T15:56:50.024Z,4.65
2023-05-13T15:59:17.782Z,2.55
2023-05-13T16:01:46.692Z,3.53
2023-05-13T16:04:14.705Z,3.85
2023-05-13T16:06:42.469Z,7.55
2023-05-13T16:09:10.705Z,3.63
2023-05-13T16:11:38.398Z,5.60
2023-05-13T16:14:07.680Z,2.95
2023-05-13T16:16:35.567Z,5.35
2023-05-13T16:19:03.856Z,3.60
2023-05-13T16:21:31.754Z,2.70
2023-05-13T16:23:59.716Z,4.30
2023-05-13T16:26:27.778Z,3.53
2023-05-13T16:28:55.631Z,4.03
2023-05-13T16:31:23.369Z,2.53
2023-05-13T16:33:51.578Z,5.10
2023-05-13T16:36:19.315Z,4.22
2023-05-13T16:38:47.178Z,2.33
2023-05-13T16:41:14.901Z,2.88
2023-05-13T16:43:42.726Z,2.30
2023-05-13T16:46:10.479Z,4.68
2023-05-13T16:48:38.326Z,6.07
2023-05-13T16:51:06.347Z,2.85
2023-05-13T16:53:34.197Z,1.95
2023-05-13T16:56:01.982Z,2.60
2023-05-13T16:58:29.779Z,2.55
2023-05-13T17:00:59.173Z,2.55
2023-05-13T17:03:27.870Z,2.85
2023-05-13T17:05:55.741Z,4.65
2023-05-13T17:08:24.555Z,9.00
2023-05-13T17:10:52.261Z,7.32
2023-05-13T17:13:20.117Z,7.45
2023-05-13T17:15:48.255Z,6.95
2023-05-13T17:18:16.180Z,17.80
2023-05-13T17:20:45.460Z,8.88
2023-05-13T17:23:13.252Z,9.63
2023-05-13T17:25:41.004Z,11.75
2023-05-13T17:28:08.787Z,7.03
2023-05-13T17:30:36.525Z,6.97
2023-05-13T17:33:04.343Z,8.40
2023-05-13T17:35:32.862Z,8.90
2023-05-13T17:38:00.607Z,5.10
2023-05-13T17:40:28.443Z,12.02
2023-05-13T17:42:56.392Z,6.65
2023-05-13T17:45:24.216Z,4.05
2023-05-13T17:47:52.102Z,6.10
2023-05-13T17:50:20.280Z,10.38
2023-05-13T17:52:48.029Z,18.67
2023-05-13T17:55:15.811Z,12.02
2023-05-13T17:57:43.624Z,13.63
2023-05-13T18:00:12.101Z,8.13
2023-05-13T18:02:42.580Z,5.90
2023-05-13T18:05:10.557Z,9.18
2023-05-13T18:07:38.341Z,5.20
2023-05-13T18:10:06.886Z,3.22
2023-05-13T18:12:34.606Z,3.60
2023-05-13T18:15:02.497Z,10.25
2023-05-13T18:17:30.218Z,3.40
2023-05-13T18:19:57.934Z,7.05
2023-05-13T18:22:26.155Z,4.30
2023-05-13T18:24:53.865Z,5.00
2023-05-13T18:27:21.864Z,5.13
2023-05-13T18:29:49.521Z,6.78
2023-05-13T18:32:17.282Z,4.53
2023-05-13T18:34:45.014Z,4.72
2023-05-13T18:37:12.812Z,4.55
2023-05-13T18:39:40.805Z,10.00
2023-05-13T18:42:08.652Z,3.95
2023-05-13T18:44:36.338Z,5.45
2023-05-13T18:47:07.313Z,6.57
2023-05-13T18:49:35.957Z,4.27
2023-05-13T18:52:03.853Z,4.60
2023-05-13T18:54:31.554Z,6.03
2023-05-13T18:56:59.281Z,3.85
2023-05-13T18:59:26.988Z,12.53
2023-05-13T19:01:54.936Z,15.63
2023-05-13T19:04:23.068Z,9.70
2023-05-13T19:06:51.217Z,7.22
2023-05-13T19:09:19.071Z,8.83
2023-05-13T19:11:46.877Z,5.80
2023-05-13T19:14:14.561Z,4.40
2023-05-13T19:16:42.355Z,3.38
2023-05-13T19:19:10.299Z,3.10
2023-05-13T19:21:38.104Z,5.10
2023-05-13T19:24:05.817Z,4.20
2023-05-13T19:26:36.431Z,3.57
2023-05-13T19:29:17.288Z,2.85
2023-05-13T19:31:48.132Z,5.17
2023-05-13T19:34:15.956Z,4.73
2023-05-13T19:36:45.145Z,7.00
2023-05-13T19:39:12.925Z,5.97
2023-05-13T19:41:40.638Z,5.43
2023-05-13T19:44:08.363Z,4.50
2023-05-13T19:46:36.055Z,4.10
2023-05-13T19:49:03.863Z,5.20
2023-05-13T19:51:31.686Z,6.87
2023-05-13T19:53:59.487Z,3.57
2023-05-13T19:56:27.205Z,5.13
2023-05-13T19:58:54.931Z,3.67
2023-05-13T20:01:24.247Z,7.13
2023-05-13T20:03:52.206Z,4.23
2023-05-13T20:06:20.026Z,3.60
2023-05-13T20:08:47.818Z,4.77
2023-05-13T20:11:15.553Z,3.50
2023-05-13T20:13:43.242Z,3.47
2023-05-13T20:16:10.918Z,10.37
2023-05-13T20:18:38.818Z,6.37
2023-05-13T20:21:06.677Z,3.80
2023-05-13T20:23:34.462Z,4.00
2023-05-13T20:26:02.222Z,4.13
2023-05-13T20:28:30.081Z,3.20
2023-05-13T20:30:57.816Z,4.07
2023-05-13T20:33:25.583Z,8.13
2023-05-13T20:35:53.553Z,4.00
2023-05-13T20:38:21.752Z,3.37
2023-05-13T20:40:49.399Z,4.27
2023-05-13T20:43:17.126Z,5.37
2023-05-13T20:45:44.872Z,7.63
2023-05-13T20:48:13.628Z,8.00
2023-05-13T20:50:41.386Z,6.33
2023-05-13T20:53:09.137Z,5.53
2023-05-13T20:55:36.806Z,7.70
2023-05-13T20:58:04.590Z,9.27
2023-05-13T21:00:32.254Z,5.40
2023-05-13T21:03:00.088Z,9.27
2023-05-13T21:05:27.941Z,5.57
2023-05-13T21:07:55.823Z,6.80
2023-05-13T21:10:23.750Z,5.50
2023-05-13T21:12:51.707Z,6.20
2023-05-13T21:15:19.406Z,5.40
2023-05-13T21:17:47.331Z,6.57
2023-05-13T21:20:15.119Z,9.33
2023-05-13T21:22:42.832Z,5.73
2023-05-13T21:25:10.562Z,7.73
2023-05-13T21:27:38.434Z,5.77
2023-05-13T21:30:06.673Z,7.03
2023-05-13T21:32:34.531Z,6.60
2023-05-13T21:35:02.220Z,4.53
2023-05-13T21:37:29.977Z,7.10
2023-05-13T21:39:57.643Z,6.00
2023-05-13T21:42:27.089Z,7.20
2023-05-13T21:44:55.191Z,6.17
2023-05-13T21:47:23.022Z,5.17
2023-05-13T21:49:50.797Z,5.10
2023-05-13T21:52:18.838Z,29.17
2023-05-13T21:54:46.496Z,5.97
2023-05-13T21:57:14.171Z,4.57
2023-05-13T21:59:41.985Z,3.73
2023-05-13T22:02:09.687Z,7.43
2023-05-13T22:04:37.449Z,5.70
2023-05-13T22:07:05.520Z,4.23
2023-05-13T22:09:33.222Z,6.43
2023-05-13T22:12:01.496Z,6.27
2023-05-13T22:14:29.262Z,4.90
2023-05-13T22:17:08.611Z,4.40
2023-05-13T22:19:37.741Z,5.33
2023-05-13T22:22:05.849Z,3.40
2023-05-13T22:24:33.605Z,3.87
2023-05-13T22:27:01.328Z,4.60
2023-05-13T22:29:29.090Z,3.70
2023-05-13T22:31:57.547Z,5.17
2023-05-13T22:34:26.105Z,3.50
2023-05-13T22:36:53.825Z,5.20
2023-05-13T22:39:21.816Z,5.97
2023-05-13T22:41:49.480Z,4.33
2023-05-13T22:44:17.232Z,3.43
2023-05-13T22:46:44.955Z,3.47
2023-05-13T22:49:12.773Z,4.27
2023-05-13T22:51:40.463Z,4.43
2023-05-13T22:54:08.195Z,6.13
2023-05-13T22:56:35.849Z,3.27
2023-05-13T22:59:04.348Z,3.93
2023-05-13T23:01:32.049Z,6.03
2023-05-13T23:03:59.953Z,4.23
2023-05-13T23:06:27.761Z,3.50
2023-05-13T23:08:55.792Z,3.90
2023-05-13T23:11:23.489Z,4.77
2023-05-13T23:13:51.267Z,6.40
2023-05-13T23:16:19.108Z,4.57
2023-05-13T23:18:46.983Z,4.93
2023-05-13T23:21:14.724Z,3.67
2023-05-13T23:23:42.456Z,6.07
2023-05-13T23:26:10.201Z,3.83
2023-05-13T23:28:37.912Z,3.83
2023-05-13T23:31:05.646Z,4.87
2023-05-13T23:33:33.456Z,6.20
2023-05-13T23:36:01.186Z,3.67
2023-05-13T23:38:28.940Z,4.97
2023-05-13T23:40:56.641Z,5.87
2023-05-13T23:43:24.362Z,5.27
2023-05-13T23:45:52.076Z,7.97
2023-05-13T23:48:19.889Z,3.73
2023-05-13T23:50:47.593Z,5.10
2023-05-13T23:53:16.544Z,4.63
2023-05-13T23:55:44.341Z,5.73
2023-05-13T23:58:12.113Z,6.97
